CDT,Max TemperatureF,Mean TemperatureF,Min TemperatureF,Max Dew PointF,MeanDew PointF,Min DewpointF,Max Humidity, Mean Humidity, Min Humidity, Max Sea Level PressureIn, Mean Sea Level PressureIn, Min Sea Level PressureIn, Max VisibilityMiles, Mean VisibilityMiles, Min VisibilityMiles, Max Wind SpeedMPH, Mean Wind SpeedMPH, Max Gust SpeedMPH,PrecipitationIn, CloudCover, Events, WindDirDegrees
2012-10-1,92,80,67,63,60,55,78,55,32,29.92,29.86,29.81,10,10,10,18,5,22,T,0,,11
2012-10-2,93,80,66,63,55,39,87,53,18,29.99,29.94,29.88,10,10,10,21,7,26,0.00,0,,341
2012-10-3,97,82,66,69,63,58,81,55,28,29.99,29.95,29.88,10,10,8,23,12,29,0.00,0,,140
2012-10-4,100,88,75,69,66,57,82,54,26,30.07,30.01,29.97,10,10,10,26,15,32,0.00,0,,151
2012-10-5,94,81,68,68,63,55,90,59,28,30.09,30.02,29.93,10,10,10,20,9,26,0.00,0,,136
2012-10-6,95,80,64,68,64,57,93,62,30,29.99,29.93,29.85,10,10,10,18,8,24,0.00,0,,114
2012-10-7,76,71,65,70,62,55,82,70,57,30.12,30.03,29.96,10,10,7,22,12,29,T,7,,14
2012-10-8,69,66,62,54,50,48,63,57,51,30.20,30.13,30.09,10,10,10,18,9,22,0.00,8,,332
2012-10-9,94,78,62,73,62,53,79,60,41,30.08,30.00,29.89,10,10,10,20,7,26,0.00,3,,125
2012-10-10,96,85,74,74,72,67,93,68,43,30.04,29.99,29.91,10,10,8,21,11,31,0.00,3,,130
2012-10-11,96,86,76,75,72,66,94,68,41,30.08,30.03,29.99,10,10,10,25,13,31,T,3,,131
2012-10-12,97,86,74,76,72,65,94,65,36,30.11,30.05,29.98,10,10,10,24,13,29,0.02,2,,128
2012-10-13,95,86,76,75,72,68,88,69,49,30.05,29.98,29.88,10,10,10,31,18,39,0.00,3,,138
2012-10-14,92,84,75,72,68,64,79,60,41,30.03,29.96,29.90,10,10,10,20,12,26,0.00,2,,144
2012-10-15,93,83,73,70,66,60,84,60,36,30.06,29.99,29.91,10,10,10,14,5,18,0.00,1,,109
2012-10-16,94,84,73,70,65,53,87,59,31,29.96,29.84,29.72,10,10,10,18,10,24,0.00,0,,139
2012-10-17,97,86,75,71,67,62,79,56,33,29.79,29.72,29.64,10,10,8,20,9,25,0.00,0,,159
2012-10-18,104,89,74,72,69,62,87,57,27,29.87,29.76,29.68,10,8,1,33,7,49,1.37,3,Rain,122
2012-10-19,90,81,72,75,70,61,91,72,52,29.98,29.91,29.87,10,10,8,18,10,24,0.00,5,,45
2012-10-20,92,82,72,75,71,64,94,68,41,29.92,29.87,29.78,10,8,4,24,12,36,0.00,2,,142
2012-10-21,93,84,74,72,71,68,93,70,46,29.91,29.87,29.83,10,9,7,25,14,32,0.00,1,,140
2012-10-22,93,82,70,72,69,63,93,66,38,29.94,29.90,29.85,10,10,10,25,13,32,0.00,1,,137
2012-10-23,92,83,74,71,69,67,82,66,49,29.94,29.90,29.85,10,10,10,22,12,25,0.00,4,,125
2012-10-24,92,81,70,68,65,59,84,64,43,29.94,29.89,29.82,10,10,10,20,11,24,0.00,1,,131
2012-10-25,94,82,70,71,64,53,90,59,28,29.88,29.82,29.75,10,10,10,22,12,26,0.00,0,,136
2012-10-26,90,73,56,70,62,46,87,66,45,30.20,29.99,29.87,10,10,7,25,12,32,T,3,Rain,52
2012-10-27,67,60,53,52,43,35,89,62,34,30.26,30.19,30.12,10,10,8,22,10,29,0.00,6,,335
2012-10-28,75,68,60,45,37,30,51,36,20,30.24,30.18,30.13,10,10,10,15,8,21,0.00,7,,22
2012-10-29,80,69,58,54,46,39,72,51,30,30.25,30.17,30.10,10,10,10,13,7,16,0.00,1,,48
2012-10-30,85,71,57,64,58,53,86,65,43,30.13,30.03,29.94,10,10,10,20,7,25,0.00,0,,142
2012-10-31,91,79,66,70,64,54,93,61,29,30.02,29.96,29.91,10,10,10,17,8,24,0.00,0,,148